createdAt,value
2019-05-21T00:01:24.591Z,5.33
2019-05-21T00:03:54.978Z,6.25
2019-05-21T00:06:25.362Z,5.67
2019-05-21T00:08:56.061Z,5.47
2019-05-21T00:11:26.444Z,5.05
2019-05-21T00:13:56.871Z,5.62
2019-05-21T00:16:28.719Z,5.95
2019-05-21T00:18:59.124Z,7.30
2019-05-21T00:21:29.502Z,8.13
2019-05-21T00:23:59.909Z,8.88
2019-05-21T00:26:30.291Z,8.63
2019-05-21T00:29:36.646Z,7.72
2019-05-21T00:32:42.818Z,8.63
2019-05-21T00:35:50.701Z,7.80
2019-05-21T00:38:56.766Z,8.68
2019-05-21T00:42:04.035Z,8.43
2019-05-21T00:44:40.968Z,8.83
2019-05-21T00:47:12.787Z,7.95
2019-05-21T00:49:43.294Z,9.65
2019-05-21T00:52:15.243Z,8.85
2019-05-21T00:54:45.699Z,10.13
2019-05-21T00:57:16.058Z,10.63
2019-05-21T00:59:47.738Z,10.75
2019-05-21T01:02:18.151Z,10.03
2019-05-21T01:05:00.136Z,9.95
2019-05-21T01:07:20.583Z,10.65
2019-05-21T01:09:50.991Z,9.93
2019-05-21T01:12:21.356Z,11.25
2019-05-21T01:14:51.789Z,11.00
2019-05-21T01:17:22.286Z,11.33
2019-05-21T01:19:52.659Z,11.75
2019-05-21T01:22:23.062Z,12.65
2019-05-21T01:24:53.603Z,13.28
2019-05-21T01:27:23.971Z,12.18
2019-05-21T01:29:55.906Z,12.47
2019-05-21T01:32:26.317Z,9.50
2019-05-21T01:34:56.693Z,10.82
2019-05-21T01:37:27.064Z,11.10
2019-05-21T01:39:57.734Z,10.30
2019-05-21T01:42:28.116Z,9.43
2019-05-21T01:44:58.485Z,9.98
2019-05-21T01:47:28.982Z,10.13
2019-05-21T01:49:59.467Z,10.53
2019-05-21T01:52:31.334Z,10.68
2019-05-21T01:55:01.786Z,11.10
2019-05-21T01:57:33.642Z,11.55
2019-05-21T02:00:06.055Z,10.32
2019-05-21T02:02:36.545Z,10.15
2019-05-21T02:05:08.893Z,10.43
2019-05-21T02:07:39.346Z,10.30
2019-05-21T02:10:09.973Z,11.25
2019-05-21T02:12:41.924Z,10.93
2019-05-21T02:15:12.598Z,10.85
2019-05-21T02:17:43.004Z,10.03
2019-05-21T02:20:13.582Z,9.68
2019-05-21T02:22:45.655Z,11.28
2019-05-21T02:25:16.768Z,11.40
2019-05-21T02:27:47.170Z,12.60
2019-05-21T02:30:17.750Z,10.13
2019-05-21T02:32:48.229Z,10.85
2019-05-21T02:35:18.629Z,9.78
2019-05-21T02:37:49.098Z,11.08
2019-05-21T02:40:19.973Z,11.38
2019-05-21T02:42:50.362Z,13.13
2019-05-21T02:45:20.870Z,14.53
2019-05-21T02:47:51.547Z,14.00
2019-05-21T02:50:23.702Z,14.07
2019-05-21T02:52:54.085Z,14.33
2019-05-21T02:55:24.487Z,13.60
2019-05-21T02:57:55.682Z,13.98
2019-05-21T03:00:27.637Z,13.53
2019-05-21T03:02:59.645Z,13.95
2019-05-21T03:05:31.623Z,15.68
2019-05-21T03:08:03.614Z,14.20
2019-05-21T03:10:34.097Z,14.65
2019-05-21T03:13:04.773Z,12.82
2019-05-21T03:15:35.331Z,13.90
2019-05-21T03:18:07.228Z,13.55
2019-05-21T03:20:37.707Z,14.07
2019-05-21T03:23:09.834Z,15.15
2019-05-21T03:25:40.211Z,14.63
2019-05-21T03:28:10.610Z,14.55
2019-05-21T03:30:41.066Z,14.93
2019-05-21T03:33:11.603Z,13.83
2019-05-21T03:35:43.478Z,13.80
2019-05-21T03:38:13.929Z,12.70
2019-05-21T03:40:44.378Z,12.85
2019-05-21T03:43:14.861Z,13.98
2019-05-21T03:45:45.553Z,12.35
2019-05-21T03:48:17.671Z,12.47
2019-05-21T03:50:48.061Z,11.70
2019-05-21T03:53:18.428Z,11.65
2019-05-21T03:55:48.880Z,11.57
2019-05-21T03:58:19.301Z,9.75
2019-05-21T04:00:49.788Z,9.90
2019-05-21T04:03:21.793Z,9.65
2019-05-21T04:05:52.167Z,10.25
2019-05-21T04:08:22.734Z,9.80
2019-05-21T04:10:53.364Z,9.63
2019-05-21T04:13:23.732Z,9.65
2019-05-21T04:15:55.665Z,9.18
2019-05-21T04:18:30.671Z,9.43
2019-05-21T04:21:01.039Z,8.75
2019-05-21T04:23:31.516Z,8.60
2019-05-21T04:26:01.903Z,7.97
2019-05-21T04:28:32.399Z,6.97
2019-05-21T04:31:02.763Z,6.45
2019-05-21T04:33:33.258Z,6.75
2019-05-21T04:36:03.689Z,6.20
2019-05-21T04:38:34.091Z,5.83
2019-05-21T04:41:04.521Z,6.87
2019-05-21T04:43:34.927Z,6.53
2019-05-21T04:46:05.318Z,6.15
2019-05-21T04:48:35.700Z,6.22
2019-05-21T04:51:06.127Z,6.62
2019-05-21T04:53:36.561Z,7.12
2019-05-21T04:56:08.433Z,6.42
2019-05-21T04:58:38.788Z,6.50
2019-05-21T05:01:09.180Z,6.47
2019-05-21T05:03:39.554Z,5.75
2019-05-21T05:06:10.074Z,6.80
2019-05-21T05:08:40.534Z,6.60
2019-05-21T05:11:10.960Z,6.10
2019-05-21T05:13:41.503Z,6.78
2019-05-21T05:16:11.950Z,6.83
2019-05-21T05:18:42.319Z,5.65
2019-05-21T05:21:12.832Z,6.40
2019-05-21T05:23:43.252Z,7.62
2019-05-21T05:26:13.830Z,6.15
2019-05-21T05:28:44.286Z,5.60
2019-05-21T05:31:15.595Z,5.97
2019-05-21T05:33:46.070Z,5.00
2019-05-21T05:36:16.484Z,4.60
2019-05-21T05:38:46.929Z,5.30
2019-05-21T05:41:17.446Z,4.67
2019-05-21T05:43:47.971Z,4.67
2019-05-21T05:46:18.562Z,4.33
2019-05-21T05:48:53.561Z,4.10
2019-05-21T05:51:24.003Z,3.70
2019-05-21T05:53:58.312Z,3.95
2019-05-21T05:56:29.352Z,3.98
2019-05-21T05:59:00.014Z,4.03
2019-05-21T06:01:32.090Z,4.55
2019-05-21T06:04:02.529Z,5.00
2019-05-21T06:06:32.952Z,8.95
2019-05-21T06:09:05.305Z,6.42
2019-05-21T06:11:35.802Z,5.37
2019-05-21T06:14:06.155Z,4.53
2019-05-21T06:16:38.052Z,5.28
2019-05-21T06:19:08.505Z,3.87
2019-05-21T06:21:38.997Z,3.67
2019-05-21T06:24:12.882Z,3.90
2019-05-21T06:26:41.526Z,3.98
2019-05-21T06:29:12.035Z,7.65
2019-05-21T06:31:42.455Z,4.55
2019-05-21T06:34:12.888Z,5.42
2019-05-21T06:36:43.310Z,3.98
2019-05-21T06:39:13.816Z,4.65
2019-05-21T06:41:44.260Z,4.25
2019-05-21T06:44:14.829Z,3.80
2019-05-21T06:46:45.213Z,4.53
2019-05-21T06:49:15.678Z,3.67
2019-05-21T06:51:46.086Z,3.92
2019-05-21T06:54:16.564Z,4.12
2019-05-21T06:56:47.040Z,3.80
2019-05-21T06:59:17.538Z,4.28
2019-05-21T07:01:48.026Z,7.15
2019-05-21T07:04:18.503Z,5.35
2019-05-21T07:06:49.073Z,4.47
2019-05-21T07:09:19.556Z,6.33
2019-05-21T07:11:49.990Z,5.28
2019-05-21T07:14:20.370Z,4.85
2019-05-21T07:16:50.920Z,4.87
2019-05-21T07:19:21.320Z,5.47
2019-05-21T07:21:51.711Z,6.58
2019-05-21T07:24:22.119Z,5.87
2019-05-21T07:26:52.495Z,5.80
2019-05-21T07:29:22.902Z,5.03
2019-05-21T07:31:53.283Z,6.40
2019-05-21T07:34:23.647Z,5.50
2019-05-21T07:36:54.037Z,5.50
2019-05-21T07:39:24.397Z,5.53
2019-05-21T07:41:54.803Z,5.42
2019-05-21T07:44:25.279Z,10.32
2019-05-21T07:46:55.755Z,7.12
2019-05-21T07:49:26.229Z,6.10
2019-05-21T07:51:56.646Z,6.58
2019-05-21T07:54:28.136Z,9.65
2019-05-21T07:56:58.802Z,8.88
2019-05-21T07:59:30.670Z,6.17
2019-05-21T08:02:01.151Z,9.93
2019-05-21T08:04:31.606Z,5.65
2019-05-21T08:07:02.018Z,6.50
2019-05-21T08:09:32.457Z,6.60
2019-05-21T08:12:18.326Z,6.28
2019-05-21T08:14:34.950Z,9.05
2019-05-21T08:17:05.354Z,6.35
2019-05-21T08:19:35.732Z,5.30
2019-05-21T08:22:06.190Z,6.42
2019-05-21T08:24:36.592Z,6.00
2019-05-21T08:27:06.979Z,14.45
2019-05-21T08:29:38.922Z,7.03
2019-05-21T08:32:10.760Z,6.08
2019-05-21T08:34:41.306Z,7.62
2019-05-21T08:37:11.674Z,6.60
2019-05-21T08:39:43.719Z,6.95
2019-05-21T08:42:14.098Z,7.50
2019-05-21T08:44:44.552Z,8.80
2019-05-21T08:47:14.961Z,8.48
2019-05-21T08:49:45.425Z,10.90
2019-05-21T08:52:17.272Z,7.35
2019-05-21T08:54:49.281Z,7.53
2019-05-21T08:57:19.884Z,9.98
2019-05-21T08:59:52.070Z,9.45
2019-05-21T09:02:24.012Z,7.97
2019-05-21T09:04:54.439Z,8.13
2019-05-21T09:07:24.829Z,8.90
2019-05-21T09:09:55.376Z,8.48
2019-05-21T09:12:25.878Z,7.72
2019-05-21T09:14:56.258Z,7.90
2019-05-21T09:17:26.804Z,7.83
2019-05-21T09:19:57.207Z,7.10
2019-05-21T09:22:27.725Z,7.40
2019-05-21T09:24:58.131Z,7.50
2019-05-21T09:27:28.497Z,8.48
2019-05-21T09:30:01.262Z,7.40
2019-05-21T09:32:31.640Z,9.48
2019-05-21T09:35:03.622Z,7.47
2019-05-21T09:37:34.001Z,7.33
2019-05-21T09:40:06.591Z,7.55
2019-05-21T09:42:36.962Z,6.75
2019-05-21T09:45:10.761Z,7.37
2019-05-21T09:47:41.213Z,7.50
2019-05-21T09:50:12.092Z,6.85
2019-05-21T09:52:42.552Z,7.25
2019-05-21T09:55:13.123Z,7.03
2019-05-21T09:57:47.862Z,6.62
2019-05-21T10:00:20.655Z,6.80
2019-05-21T10:02:51.614Z,6.42
2019-05-21T10:05:22.026Z,6.00
2019-05-21T10:07:52.435Z,5.80
2019-05-21T10:10:22.913Z,6.17
2019-05-21T10:12:53.281Z,7.78
2019-05-21T10:15:23.665Z,6.95
2019-05-21T10:17:56.418Z,5.83
2019-05-21T10:20:26.840Z,5.90
2019-05-21T10:22:57.313Z,5.70
2019-05-21T10:25:27.687Z,4.97
2019-05-21T10:27:58.201Z,6.03
2019-05-21T10:30:28.741Z,5.60
2019-05-21T10:32:59.238Z,6.08
2019-05-21T10:35:29.690Z,6.30
2019-05-21T10:38:00.175Z,5.40
2019-05-21T10:40:30.641Z,4.03
2019-05-21T10:43:01.135Z,3.75
2019-05-21T10:45:33.066Z,3.55
2019-05-21T10:48:03.608Z,3.58
2019-05-21T10:50:35.494Z,2.98
2019-05-21T10:53:05.897Z,2.55
2019-05-21T10:55:36.292Z,2.90
2019-05-21T10:58:08.164Z,3.47
2019-05-21T11:00:38.873Z,3.50
2019-05-21T11:03:16.870Z,4.17
2019-05-21T11:06:09.632Z,3.95
2019-05-21T11:08:29.230Z,2.58
2019-05-21T11:10:59.772Z,2.55
2019-05-21T11:13:30.196Z,2.52
2019-05-21T11:16:00.623Z,2.15
2019-05-21T11:18:31.534Z,1.92
2019-05-21T11:21:01.909Z,2.27
2019-05-21T11:23:32.438Z,2.42
2019-05-21T11:26:03.002Z,1.98
2019-05-21T11:28:33.569Z,1.90
2019-05-21T11:31:04.087Z,2.10
2019-05-21T11:33:34.586Z,2.52
2019-05-21T11:36:05.178Z,2.10
2019-05-21T11:38:40.194Z,2.42
2019-05-21T11:41:07.730Z,2.20
2019-05-21T11:43:38.162Z,2.25
2019-05-21T11:46:08.740Z,2.50
2019-05-21T11:48:39.216Z,1.80
2019-05-21T11:51:12.692Z,1.92
2019-05-21T11:53:41.793Z,2.45
2019-05-21T11:56:12.283Z,2.17
2019-05-21T11:58:44.157Z,2.02
2019-05-21T12:01:14.634Z,2.45
2019-05-21T12:03:45.101Z,1.92
2019-05-21T12:06:15.780Z,1.57
2019-05-21T12:08:56.177Z,1.75
2019-05-21T12:11:18.331Z,1.70
2019-05-21T12:13:48.785Z,1.80
2019-05-21T12:16:19.168Z,2.15
2019-05-21T12:18:49.636Z,1.87
2019-05-21T12:21:20.016Z,1.40
2019-05-21T12:23:50.486Z,3.77
2019-05-21T12:26:20.903Z,1.35
2019-05-21T12:28:51.343Z,2.40
2019-05-21T12:31:21.883Z,1.10
2019-05-21T12:33:52.271Z,1.40
2019-05-21T12:36:24.321Z,1.35
2019-05-21T12:38:54.785Z,0.95
2019-05-21T12:41:25.344Z,1.32
2019-05-21T12:43:55.792Z,1.50
2019-05-21T12:46:26.265Z,2.87
2019-05-21T12:48:56.712Z,0.90
2019-05-21T12:51:27.166Z,1.70
2019-05-21T12:53:57.593Z,0.98
2019-05-21T12:56:28.884Z,0.70
2019-05-21T12:59:00.920Z,0.80
2019-05-21T13:01:31.443Z,0.85
2019-05-21T13:04:01.863Z,0.80
2019-05-21T13:06:32.227Z,0.78
2019-05-21T13:09:08.123Z,0.85
2019-05-21T13:11:37.867Z,1.05
2019-05-21T13:14:08.371Z,2.22
2019-05-21T13:16:38.728Z,1.50
2019-05-21T13:19:11.334Z,0.80
2019-05-21T13:21:41.215Z,0.88
2019-05-21T13:24:11.993Z,0.90
2019-05-21T13:26:42.386Z,1.02
2019-05-21T13:29:12.795Z,0.60
2019-05-21T13:31:43.171Z,1.55
2019-05-21T13:34:13.579Z,0.78
2019-05-21T13:36:43.984Z,0.72
2019-05-21T13:39:14.362Z,1.00
2019-05-21T13:41:44.836Z,0.95
2019-05-21T13:44:16.689Z,0.70
2019-05-21T13:46:47.205Z,0.70
2019-05-21T13:49:17.676Z,0.70
2019-05-21T13:51:48.121Z,1.32
2019-05-21T13:54:18.585Z,1.27
2019-05-21T13:56:49.049Z,1.20
2019-05-21T13:59:19.424Z,0.95
2019-05-21T14:01:50.097Z,0.78
2019-05-21T14:04:20.608Z,1.60
2019-05-21T14:06:51.026Z,0.68
2019-05-21T14:09:21.700Z,0.98
2019-05-21T14:11:52.168Z,4.20
2019-05-21T14:14:22.605Z,0.75
2019-05-21T14:16:53.076Z,1.20
2019-05-21T14:19:25.047Z,1.00
2019-05-21T14:21:55.500Z,1.07
2019-05-21T14:24:27.376Z,1.00
2019-05-21T14:26:57.836Z,0.98
2019-05-21T14:29:28.241Z,0.80
2019-05-21T14:31:58.688Z,0.90
2019-05-21T14:34:29.125Z,1.12
2019-05-21T14:36:59.618Z,0.93
2019-05-21T14:39:31.490Z,0.65
2019-05-21T14:42:01.922Z,1.10
2019-05-21T14:44:32.416Z,1.52
2019-05-21T14:47:02.776Z,0.70
2019-05-21T14:49:33.181Z,1.05
2019-05-21T14:52:04.347Z,0.85
2019-05-21T14:54:34.717Z,0.70
2019-05-21T14:57:06.709Z,1.27
2019-05-21T14:59:37.229Z,0.93
2019-05-21T15:02:07.621Z,0.93
2019-05-21T15:04:39.738Z,0.72
2019-05-21T15:07:10.417Z,0.85
2019-05-21T15:09:40.885Z,1.12
2019-05-21T15:12:12.826Z,1.40
2019-05-21T15:14:43.226Z,1.20
2019-05-21T15:17:15.097Z,1.52
2019-05-21T15:19:47.118Z,2.08
2019-05-21T15:22:17.546Z,0.62
2019-05-21T15:24:47.917Z,1.40
2019-05-21T15:27:18.379Z,1.37
2019-05-21T15:29:49.022Z,0.60
2019-05-21T15:32:19.528Z,0.75
2019-05-21T15:34:51.356Z,0.90
2019-05-21T15:37:21.867Z,1.40
2019-05-21T15:39:52.254Z,0.85
2019-05-21T15:42:24.196Z,0.80
2019-05-21T15:44:54.650Z,0.80
2019-05-21T15:47:26.551Z,1.45
2019-05-21T15:49:56.924Z,1.25
2019-05-21T15:52:27.334Z,0.70
2019-05-21T15:54:57.811Z,1.20
2019-05-21T15:57:28.315Z,0.60
2019-05-21T15:59:58.839Z,0.70
2019-05-21T16:02:29.463Z,0.98
2019-05-21T16:04:59.900Z,0.60
2019-05-21T16:07:30.304Z,0.80
2019-05-21T16:10:00.714Z,1.10
2019-05-21T16:12:31.108Z,1.00
2019-05-21T16:15:01.695Z,1.00
2019-05-21T16:17:32.247Z,0.60
2019-05-21T16:20:02.754Z,0.70
2019-05-21T16:22:34.642Z,0.85
2019-05-21T16:25:08.241Z,0.70
2019-05-21T16:27:38.622Z,0.60
2019-05-21T16:30:09.655Z,0.82
2019-05-21T16:32:40.059Z,0.80
2019-05-21T16:35:13.597Z,0.70
2019-05-21T16:37:43.989Z,0.70
2019-05-21T16:40:14.999Z,0.95
2019-05-21T16:42:45.465Z,0.60
2019-05-21T16:45:17.649Z,0.70
2019-05-21T16:47:48.052Z,3.25
2019-05-21T16:50:18.635Z,1.02
2019-05-21T16:52:49.156Z,2.25
2019-05-21T16:55:19.639Z,5.35
2019-05-21T16:57:50.016Z,0.70
2019-05-21T17:00:22.505Z,0.90
2019-05-21T17:02:52.946Z,1.00
2019-05-21T17:05:23.453Z,0.90
2019-05-21T17:07:53.885Z,0.70
2019-05-21T17:10:24.322Z,0.50
2019-05-21T17:12:54.735Z,1.02
2019-05-21T17:15:26.673Z,0.60
2019-05-21T17:17:57.057Z,0.50
2019-05-21T17:20:27.510Z,0.88
2019-05-21T17:22:57.948Z,0.70
2019-05-21T17:25:28.322Z,0.50
2019-05-21T17:27:58.708Z,0.60
2019-05-21T17:30:29.099Z,0.68
2019-05-21T17:32:59.483Z,0.70
2019-05-21T17:35:29.967Z,0.80
2019-05-21T17:38:00.462Z,0.50
2019-05-21T17:40:30.925Z,0.80
2019-05-21T17:43:01.403Z,0.90
2019-05-21T17:45:31.801Z,0.62
2019-05-21T17:48:02.160Z,0.90
2019-05-21T17:50:32.567Z,0.80
2019-05-21T17:53:03.148Z,0.55
2019-05-21T17:55:33.774Z,0.60
2019-05-21T17:58:05.627Z,0.65
2019-05-21T18:00:40.403Z,0.78
2019-05-21T18:03:13.311Z,0.78
2019-05-21T18:05:43.978Z,1.00
2019-05-21T18:08:17.069Z,0.60
2019-05-21T18:10:47.055Z,1.85
2019-05-21T18:13:18.061Z,0.68
2019-05-21T18:15:49.163Z,0.70
2019-05-21T18:18:19.622Z,0.80
2019-05-21T18:20:50.023Z,1.00
2019-05-21T18:23:20.538Z,0.75
2019-05-21T18:25:51.133Z,0.98
2019-05-21T18:28:21.593Z,1.02
2019-05-21T18:30:52.509Z,0.78
2019-05-21T18:33:22.954Z,0.70
2019-05-21T18:35:53.565Z,1.02
2019-05-21T18:38:23.950Z,0.85
2019-05-21T18:40:54.452Z,0.70
2019-05-21T18:43:24.992Z,1.05
2019-05-21T18:45:55.417Z,1.00
2019-05-21T18:48:25.849Z,1.47
2019-05-21T18:50:58.608Z,0.80
2019-05-21T18:53:28.987Z,1.07
2019-05-21T18:55:59.496Z,0.65
2019-05-21T18:58:29.886Z,0.72
2019-05-21T19:01:00.420Z,0.80
2019-05-21T19:03:30.895Z,0.80
2019-05-21T19:06:01.434Z,0.80
2019-05-21T19:08:31.908Z,1.05
2019-05-21T19:11:02.443Z,0.80
2019-05-21T19:13:32.818Z,0.98
2019-05-21T19:16:03.419Z,0.80
2019-05-21T19:18:35.253Z,0.78
2019-05-21T19:21:05.791Z,0.90
2019-05-21T19:23:36.261Z,0.90
2019-05-21T19:26:06.790Z,0.80
2019-05-21T19:28:37.332Z,0.90
2019-05-21T19:31:07.775Z,0.85
2019-05-21T19:33:38.249Z,0.80
2019-05-21T19:36:08.654Z,0.80
2019-05-21T19:38:39.174Z,0.80
2019-05-21T19:41:09.736Z,0.80
2019-05-21T19:43:40.163Z,0.82
2019-05-21T19:46:10.597Z,0.75
2019-05-21T19:48:41.181Z,0.95
2019-05-21T19:51:12.358Z,1.10
2019-05-21T19:53:45.239Z,0.93
2019-05-21T19:56:15.631Z,1.05
2019-05-21T19:58:46.227Z,1.00
2019-05-21T20:01:16.820Z,1.17
2019-05-21T20:03:47.507Z,0.80
2019-05-21T20:06:18.373Z,0.80
2019-05-21T20:08:49.103Z,0.75
2019-05-21T20:11:20.415Z,1.02
2019-05-21T20:13:50.945Z,0.90
2019-05-21T20:16:21.451Z,0.88
2019-05-21T20:18:52.051Z,0.98
2019-05-21T20:21:23.314Z,1.37
2019-05-21T20:23:55.301Z,0.70
2019-05-21T20:26:27.547Z,0.80
2019-05-21T20:28:59.350Z,1.07
2019-05-21T20:31:30.114Z,0.88
2019-05-21T20:34:00.906Z,0.62
2019-05-21T20:36:32.886Z,0.70
2019-05-21T20:39:08.022Z,0.70
2019-05-21T20:41:39.589Z,0.80
2019-05-21T20:44:11.523Z,0.80
2019-05-21T20:46:42.422Z,0.82
2019-05-21T20:49:13.166Z,0.60
2019-05-21T20:51:44.335Z,0.70
2019-05-21T20:54:15.633Z,0.60
2019-05-21T20:56:46.145Z,0.93
2019-05-21T20:59:16.602Z,0.72
2019-05-21T21:01:47.401Z,0.80
2019-05-21T21:04:17.906Z,1.00
2019-05-21T21:06:48.781Z,0.60
2019-05-21T21:09:19.297Z,0.82
2019-05-21T21:11:49.890Z,0.60
2019-05-21T21:14:20.984Z,0.62
2019-05-21T21:16:51.452Z,0.70
2019-05-21T21:19:22.225Z,0.68
2019-05-21T21:21:54.156Z,0.57
2019-05-21T21:24:25.491Z,1.05
2019-05-21T21:26:56.427Z,0.45
2019-05-21T21:29:26.839Z,0.70
2019-05-21T21:31:57.230Z,0.68
2019-05-21T21:34:27.725Z,0.60
2019-05-21T21:36:58.605Z,0.70
2019-05-21T21:39:29.458Z,0.85
2019-05-21T21:42:02.814Z,0.57
2019-05-21T21:44:34.521Z,0.60
2019-05-21T21:47:05.004Z,0.60
2019-05-21T21:49:36.215Z,1.87
2019-05-21T21:52:08.436Z,1.42
2019-05-21T21:54:39.150Z,0.70
2019-05-21T21:57:09.631Z,0.60
2019-05-21T21:59:40.043Z,0.90
2019-05-21T22:02:17.110Z,0.78
2019-05-21T22:04:47.947Z,0.60
2019-05-21T22:07:18.385Z,0.72
2019-05-21T22:09:48.979Z,0.62
2019-05-21T22:12:19.541Z,0.80
2019-05-21T22:14:52.967Z,0.60
2019-05-21T22:17:23.542Z,0.80
2019-05-21T22:19:54.123Z,0.70
2019-05-21T22:22:24.720Z,0.80
2019-05-21T22:24:55.812Z,0.80
2019-05-21T22:27:26.398Z,0.55
2019-05-21T22:29:56.887Z,0.60
2019-05-21T22:32:28.803Z,0.60
2019-05-21T22:34:59.320Z,0.50
2019-05-21T22:37:29.854Z,0.68
2019-05-21T22:40:00.268Z,0.80
2019-05-21T22:42:31.639Z,0.70
2019-05-21T22:45:07.801Z,0.80
2019-05-21T22:47:35.862Z,0.60
2019-05-21T22:50:06.873Z,0.60
2019-05-21T22:52:37.265Z,0.65
2019-05-21T22:55:09.461Z,0.80
2019-05-21T22:57:41.306Z,0.80
2019-05-21T23:00:12.103Z,0.60
2019-05-21T23:02:43.397Z,0.80
2019-05-21T23:05:14.055Z,0.50
2019-05-21T23:07:44.433Z,0.70
2019-05-21T23:10:16.211Z,0.53
2019-05-21T23:12:46.662Z,0.70
2019-05-21T23:15:24.804Z,0.50
2019-05-21T23:17:50.810Z,0.72
2019-05-21T23:20:23.725Z,0.50
2019-05-21T23:22:55.677Z,0.70
2019-05-21T23:25:27.820Z,0.50
2019-05-21T23:27:59.611Z,0.68
2019-05-21T23:30:30.656Z,0.50
2019-05-21T23:33:01.103Z,0.80
2019-05-21T23:35:31.723Z,0.60
2019-05-21T23:38:02.380Z,0.60
2019-05-21T23:40:33.387Z,0.60
2019-05-21T23:43:04.068Z,0.65
2019-05-21T23:45:35.591Z,0.68
2019-05-21T23:48:06.457Z,0.70
2019-05-21T23:50:36.884Z,0.62
2019-05-21T23:53:07.835Z,0.82
2019-05-21T23:55:38.612Z,0.70
2019-05-21T23:58:09.727Z,0.68
